Time;durP1;ratioP1;P1;durP2;ratioP2;P2;SDS_P1;SDS_P2;PMS_P1;PMS_P2;Temp;Humidity;BMP_temperature;BMP_pressure;BME280_temperature;BME280_humidity;BME280_pressure;Samples;Min_cycle;Max_cycle;Signal;HPM_P1;HPM_P2
2023/07/18 00:02:13;;;;;;;6.32;3.35;;;;;;;29.37;44.13;99872.16;4500570;31;34062;-61
2023/07/18 00:04:41;;;;;;;4.90;3.05;;;;;;;29.37;44.08;99872.97;4500461;31;34782;-58
2023/07/18 00:07:09;;;;;;;6.18;3.25;;;;;;;29.36;44.05;99881.50;4500251;31;34715;-63
2023/07/18 00:09:37;;;;;;;4.40;2.95;;;;;;;29.36;44.02;99874.06;4500147;31;33622;-57
2023/07/18 00:12:05;;;;;;;5.35;3.60;;;;;;;29.35;44.03;99875.16;4500337;31;33939;-59
2023/07/18 00:14:33;;;;;;;4.93;3.50;;;;;;;29.35;44.02;99880.66;4500266;31;34014;-63
2023/07/18 00:17:01;;;;;;;6.00;3.40;;;;;;;29.34;44.01;99876.28;4500243;31;33427;-58
2023/07/18 00:19:29;;;;;;;5.87;3.72;;;;;;;29.35;43.97;99885.34;4500222;31;33596;-56
2023/07/18 00:21:57;;;;;;;4.62;3.25;;;;;;;29.33;43.93;99884.75;4500173;31;34532;-58
2023/07/18 00:24:25;;;;;;;4.95;3.55;;;;;;;29.33;43.93;99880.13;4500323;31;34705;-60
2023/07/18 00:26:54;;;;;;;5.10;3.47;;;;;;;29.33;43.91;99873.75;4500266;31;34768;-60
2023/07/18 00:29:23;;;;;;;4.95;2.85;;;;;;;29.33;43.91;99871.03;4500053;31;33412;-59
2023/07/18 00:31:50;;;;;;;5.60;3.53;;;;;;;29.33;43.90;99879.25;4499940;31;34017;-63
2023/07/18 00:34:18;;;;;;;7.03;3.15;;;;;;;29.32;43.87;99874.88;4500441;31;33882;-56
2023/07/18 00:36:45;;;;;;;8.75;3.65;;;;;;;29.31;43.87;99864.97;4500012;31;34021;-58
2023/07/18 00:39:13;;;;;;;6.05;3.65;;;;;;;29.31;43.85;99865.78;4500449;31;33444;-61
2023/07/18 00:41:41;;;;;;;4.68;3.40;;;;;;;29.30;43.87;99866.91;4499625;31;33920;-60
2023/07/18 00:44:09;;;;;;;4.87;3.37;;;;;;;29.30;43.83;99868.81;4500014;31;33594;-59
2023/07/18 00:46:36;;;;;;;5.12;3.80;;;;;;;29.30;43.83;99866.06;4499949;31;33903;-55
2023/07/18 00:49:04;;;;;;;4.90;3.50;;;;;;;29.29;43.79;99862.50;4498829;31;33209;-59
2023/07/18 00:51:32;;;;;;;5.30;3.55;;;;;;;29.28;43.72;99860.81;4498923;31;34189;-57
2023/07/18 00:54:00;;;;;;;5.50;3.60;;;;;;;29.28;43.70;99857.25;4498759;31;34956;-57
2023/07/18 00:56:27;;;;;;;5.05;3.25;;;;;;;29.28;43.77;99860.00;4499833;31;34099;-60
2023/07/18 00:58:55;;;;;;;5.35;3.10;;;;;;;29.27;43.78;99867.41;4499635;31;33798;-60
2023/07/18 01:01:24;;;;;;;5.22;3.33;;;;;;;29.27;43.79;99866.59;4498571;31;33916;-60
2023/07/18 01:03:53;;;;;;;6.00;3.70;;;;;;;29.27;43.71;99870.16;4499936;31;33911;-60
2023/07/18 01:06:23;;;;;;;5.30;3.25;;;;;;;29.27;43.71;99869.34;4499680;31;33562;-61
2023/07/18 01:08:51;;;;;;;5.15;3.15;;;;;;;29.25;43.68;99872.34;4499809;31;33940;-59
2023/07/18 01:11:18;;;;;;;5.20;3.62;;;;;;;29.25;43.70;99874.28;4498557;31;33956;-56
2023/07/18 01:13:46;;;;;;;9.88;3.67;;;;;;;29.25;43.63;99864.13;4499580;31;35043;-59
2023/07/18 01:16:14;;;;;;;6.28;3.60;;;;;;;29.25;43.65;99868.78;4499771;31;33902;-55
2023/07/18 01:18:42;;;;;;;5.47;3.30;;;;;;;29.25;43.64;99860.53;4499725;31;33126;-59
2023/07/18 01:21:09;;;;;;;4.68;3.25;;;;;;;29.24;43.68;99851.47;4499665;31;34032;-59
2023/07/18 01:23:37;;;;;;;7.97;3.75;;;;;;;29.24;43.69;99845.97;4485352;31;34814;-61
2023/07/18 01:26:05;;;;;;;4.97;3.35;;;;;;;29.23;43.70;99838.78;4499575;31;34295;-56
2023/07/18 01:28:32;;;;;;;5.22;3.58;;;;;;;29.23;43.69;99853.38;4499628;31;33071;-62
2023/07/18 01:31:00;;;;;;;5.35;3.58;;;;;;;29.22;43.58;99848.97;4499641;31;33442;-59
2023/07/18 01:33:28;;;;;;;6.35;3.33;;;;;;;29.22;43.57;99839.91;4498218;31;33658;-59
2023/07/18 01:35:55;;;;;;;4.80;3.35;;;;;;;29.21;43.56;99844.56;4499231;31;34795;-57
2023/07/18 01:38:29;;;;;;;4.75;3.12;;;;;;;29.22;43.54;99848.16;4499437;31;33355;-56
2023/07/18 01:40:57;;;;;;;6.10;3.45;;;;;;;29.21;43.56;99841.81;4499138;31;34791;-61
2023/07/18 01:43:25;;;;;;;4.70;3.50;;;;;;;29.21;43.58;99852.81;4499382;31;34762;-61
2023/07/18 01:45:57;;;;;;;5.50;3.80;;;;;;;29.21;43.60;99849.25;4499182;31;33785;-60
2023/07/18 01:48:27;;;;;;;4.87;3.20;;;;;;;29.20;43.57;99853.91;4497872;31;34457;-57
2023/07/18 01:50:56;;;;;;;5.32;3.60;;;;;;;29.20;43.58;99856.66;4497953;31;33997;-64
2023/07/18 01:53:26;;;;;;;5.03;3.12;;;;;;;29.19;43.56;99855.00;4497926;31;33872;-63
2023/07/18 01:55:57;;;;;;;5.80;3.90;;;;;;;29.20;43.58;99855.84;4501030;31;34656;-63
2023/07/18 01:58:25;;;;;;;4.03;2.72;;;;;;;29.17;43.59;99850.84;4492507;31;34121;-62
2023/07/18 02:00:53;;;;;;;5.35;3.47;;;;;;;29.18;43.64;99856.06;4484177;32;34852;-62
2023/07/18 02:03:21;;;;;;;5.00;3.35;;;;;;;29.17;43.68;99845.34;4484242;32;32994;-60
2023/07/18 02:05:51;;;;;;;5.20;3.60;;;;;;;29.18;43.66;99867.06;4485441;32;33592;-62
2023/07/18 02:08:18;;;;;;;5.95;3.55;;;;;;;29.16;43.69;99869.25;4485558;32;32961;-60
2023/07/18 02:10:46;;;;;;;5.47;3.60;;;;;;;29.16;43.69;99873.94;4485245;32;33917;-64
2023/07/18 02:13:13;;;;;;;5.43;3.60;;;;;;;29.16;43.71;99873.94;4485516;32;33722;-61
2023/07/18 02:15:41;;;;;;;6.10;3.58;;;;;;;29.15;43.70;99873.09;4485316;32;33870;-58
2023/07/18 02:18:09;;;;;;;6.70;4.00;;;;;;;29.15;43.73;99875.84;4485337;32;33772;-60
2023/07/18 02:20:37;;;;;;;5.22;3.40;;;;;;;29.14;43.79;99878.84;4485198;32;33851;-62
2023/07/18 02:23:07;;;;;;;6.70;3.72;;;;;;;29.14;43.82;99876.94;4485106;32;34114;-61
2023/07/18 02:25:38;;;;;;;4.47;3.10;;;;;;;29.14;43.83;99887.09;4485374;32;33812;-60
2023/07/18 02:28:07;;;;;;;5.50;3.83;;;;;;;29.13;43.88;99889.00;4485334;32;34087;-63
2023/07/18 02:30:35;;;;;;;5.82;3.55;;;;;;;29.13;43.87;99899.19;4487315;31;33846;-57
2023/07/18 02:33:06;;;;;;;5.15;3.53;;;;;;;29.13;43.83;99900.00;4500972;31;34004;-54
2023/07/18 02:35:34;;;;;;;6.10;3.60;;;;;;;29.14;43.83;99903.56;4500901;31;34918;-61
2023/07/18 02:38:02;;;;;;;4.55;3.42;;;;;;;29.12;43.84;99898.34;4501109;31;33494;-58
2023/07/18 02:40:29;;;;;;;5.53;3.47;;;;;;;29.12;43.85;99898.34;4500907;31;34553;-57
2023/07/18 02:42:57;;;;;;;5.85;3.50;;;;;;;29.12;43.85;99901.09;4500839;31;33598;-59
2023/07/18 02:45:24;;;;;;;6.12;3.90;;;;;;;29.10;43.81;99906.03;4500804;31;33201;-64
2023/07/18 02:47:52;;;;;;;5.60;3.85;;;;;;;29.11;43.84;99909.63;4486745;31;32703;-62
2023/07/18 02:50:20;;;;;;;6.25;3.33;;;;;;;29.10;43.86;99907.94;4500928;31;33917;-63
2023/07/18 02:52:48;;;;;;;5.20;3.55;;;;;;;29.10;43.84;99918.94;4500910;31;33609;-56
2023/07/18 02:55:16;;;;;;;5.78;3.55;;;;;;;29.10;43.82;99913.44;4500862;31;33852;-60
2023/07/18 02:57:43;;;;;;;4.87;3.22;;;;;;;29.10;43.76;99924.41;4500713;31;33454;-59
2023/07/18 03:00:19;;;;;;;4.90;3.62;;;;;;;29.09;43.76;99926.34;4500731;31;34817;-56
2023/07/18 03:02:48;;;;;;;5.97;3.08;;;;;;;29.09;43.76;99931.84;4501004;31;33700;-64
2023/07/18 03:05:19;;;;;;;5.32;3.62;;;;;;;29.09;43.77;99929.09;4500678;31;33935;-61
2023/07/18 03:07:46;;;;;;;5.40;3.62;;;;;;;29.08;43.78;99932.94;4501013;31;33411;-58
2023/07/18 03:10:15;;;;;;;5.32;3.80;;;;;;;29.08;43.76;99930.19;4500756;31;35217;-62
2023/07/18 03:12:42;;;;;;;6.75;3.85;;;;;;;29.07;43.76;99933.19;4486545;31;33821;-61
2023/07/18 03:15:10;;;;;;;6.37;3.33;;;;;;;29.07;43.74;99936.78;4500769;31;33839;-59
2023/07/18 03:17:38;;;;;;;5.35;3.70;;;;;;;29.06;43.75;99926.88;4500625;31;34171;-64
2023/07/18 03:20:19;;;;;;;7.12;4.05;;;;;;;29.06;43.76;99932.37;4500403;31;34695;-57
2023/07/18 03:22:49;;;;;;;5.87;3.78;;;;;;;29.05;43.78;99927.97;4500574;31;33502;-57
2023/07/18 03:25:20;;;;;;;6.50;3.45;;;;;;;29.07;43.83;99928.53;4500394;31;34808;-60
2023/07/18 03:27:48;;;;;;;5.80;3.70;;;;;;;29.04;43.85;99915.31;4500734;31;33663;-58
2023/07/18 03:30:16;;;;;;;6.12;3.70;;;;;;;29.04;43.90;99917.22;4500830;31;33650;-61
2023/07/18 03:32:43;;;;;;;4.80;3.37;;;;;;;29.05;43.93;99921.62;4499238;31;34122;-64
2023/07/18 03:35:12;;;;;;;6.90;3.67;;;;;;;29.04;43.96;99914.47;4500676;31;34740;-58
2023/07/18 03:37:40;;;;;;;6.00;3.45;;;;;;;29.03;43.96;99913.66;4500852;31;33193;-62
2023/07/18 03:40:09;;;;;;;5.85;3.75;;;;;;;29.04;43.99;99919.97;4500383;31;33910;-57
2023/07/18 03:42:37;;;;;;;5.72;3.50;;;;;;;29.03;44.03;99919.16;4500423;31;34761;-61
2023/07/18 03:45:05;;;;;;;7.22;3.50;;;;;;;29.03;44.07;99916.41;4500583;31;34525;-60
2023/07/18 03:47:33;;;;;;;5.20;3.30;;;;;;;29.04;44.03;99917.22;4500502;31;33189;-58
2023/07/18 03:50:00;;;;;;;9.52;3.85;;;;;;;29.03;44.07;99921.06;4500444;31;34856;-63
2023/07/18 03:52:28;;;;;;;7.85;3.90;;;;;;;29.03;44.08;99921.06;4500380;31;34806;-57
2023/07/18 03:54:56;;;;;;;6.35;4.10;;;;;;;29.02;44.10;99936.72;4500477;31;34229;-61
2023/07/18 03:57:26;;;;;;;6.30;3.55;;;;;;;29.03;44.17;99943.06;4499594;31;33845;-55
2023/07/18 03:59:54;;;;;;;7.35;3.70;;;;;;;29.02;44.19;99935.91;4484580;32;34071;-54
2023/07/18 04:02:22;;;;;;;6.00;3.83;;;;;;;29.02;44.23;99936.72;4483553;32;33424;-60
2023/07/18 04:04:50;;;;;;;5.40;3.70;;;;;;;29.02;44.26;99936.72;4484555;32;33836;-63
2023/07/18 04:07:19;;;;;;;6.57;3.70;;;;;;;29.01;44.28;99937.00;4484456;32;34158;-60
2023/07/18 04:09:47;;;;;;;6.28;3.80;;;;;;;29.01;44.33;99934.25;4484604;32;33847;-61
2023/07/18 04:12:16;;;;;;;5.45;3.70;;;;;;;29.01;44.35;99929.59;4484588;32;33870;-60
2023/07/18 04:14:44;;;;;;;6.68;3.83;;;;;;;29.00;44.36;99927.91;4484255;32;33587;-62
2023/07/18 04:17:11;;;;;;;5.57;3.62;;;;;;;29.02;44.39;99935.91;4484094;32;33303;-62
2023/07/18 04:19:39;;;;;;;6.60;4.07;;;;;;;28.99;44.45;99937.25;4483094;32;34562;-57
2023/07/18 04:22:06;;;;;;;6.05;3.95;;;;;;;29.00;44.45;99930.66;4483090;32;34126;-59
2023/07/18 04:24:34;;;;;;;4.65;3.30;;;;;;;28.99;44.45;99940.00;4484774;32;33816;-56
2023/07/18 04:27:02;;;;;;;7.12;4.15;;;;;;;29.00;44.54;99943.56;4483179;32;32936;-62
2023/07/18 04:29:29;;;;;;;6.00;3.75;;;;;;;29.00;44.58;99947.13;4484335;32;33586;-59
2023/07/18 04:31:57;;;;;;;6.62;3.87;;;;;;;29.01;44.63;99942.50;4484222;32;33691;-60
2023/07/18 04:34:25;;;;;;;9.70;3.92;;;;;;;29.00;44.66;99947.13;4484483;32;33792;-57
2023/07/18 04:36:52;;;;;;;6.75;4.03;;;;;;;29.00;44.68;99943.56;4484248;32;33283;-59
2023/07/18 04:39:20;;;;;;;7.70;4.50;;;;;;;29.00;44.73;99944.38;4484261;32;33746;-59
2023/07/18 04:41:48;;;;;;;6.30;4.00;;;;;;;29.00;44.74;99949.88;4484585;32;33950;-59
2023/07/18 04:44:23;;;;;;;8.55;4.07;;;;;;;29.00;44.77;99944.38;4483098;32;33963;-66
2023/07/18 04:46:52;;;;;;;9.50;3.80;;;;;;;29.00;44.78;99946.31;4483015;32;34268;-61
2023/07/18 04:49:22;;;;;;;;;;;;;;;29.00;44.80;99958.13;4483085;32;33230;-55
2023/07/18 04:51:51;;;;;;;5.78;3.85;;;;;;;29.08;44.62;99965.06;4484352;32;35026;-56
2023/07/18 04:54:19;;;;;;;6.65;3.30;;;;;;;29.02;44.73;99972.44;4484210;32;33832;-61
2023/07/18 04:56:46;;;;;;;7.78;4.05;;;;;;;29.00;44.80;99974.59;4484071;32;34128;-66
2023/07/18 04:59:14;;;;;;;7.07;4.30;;;;;;;28.99;44.85;99975.69;4497019;31;33875;-58
2023/07/18 05:01:42;;;;;;;6.32;3.80;;;;;;;28.98;44.85;99972.13;4499907;31;33791;-62
2023/07/18 05:04:10;;;;;;;6.97;4.10;;;;;;;28.98;44.80;99979.53;4499566;31;34775;-60
2023/07/18 05:06:37;;;;;;;7.72;3.80;;;;;;;28.99;44.77;99986.69;4499958;31;34027;-61
2023/07/18 05:09:05;;;;;;;8.23;3.87;;;;;;;28.99;44.73;99964.72;4499852;31;33287;-68
2023/07/18 05:11:33;;;;;;;5.82;3.83;;;;;;;28.98;44.65;99974.88;4499684;31;33946;-68
2023/07/18 05:14:02;;;;;;;7.50;4.20;;;;;;;29.00;44.63;99985.59;4499706;31;33800;-69
2023/07/18 05:16:29;;;;;;;7.87;4.12;;;;;;;29.01;44.56;99986.44;4499936;31;33015;-66
2023/07/18 05:18:57;;;;;;;6.87;4.15;;;;;;;29.01;44.54;99987.28;4499480;31;33394;-58
2023/07/18 05:21:25;;;;;;;6.12;4.05;;;;;;;29.02;44.53;99990.84;4499717;31;33891;-58
2023/07/18 05:23:53;;;;;;;5.78;4.00;;;;;;;29.02;44.47;99990.84;4499575;31;33618;-59
2023/07/18 05:26:20;;;;;;;9.45;3.83;;;;;;;29.02;44.36;99994.44;4499428;31;33513;-66
2023/07/18 05:28:48;;;;;;;6.37;3.85;;;;;;;29.01;44.29;99995.53;4499695;31;34642;-64
2023/07/18 05:31:15;;;;;;;8.55;4.03;;;;;;;29.02;44.20;99986.19;4501372;31;34773;-57
2023/07/18 05:33:44;;;;;;;8.30;4.70;;;;;;;29.03;44.18;99989.75;4501422;31;33458;-67
2023/07/18 05:36:11;;;;;;;6.35;4.00;;;;;;;29.02;44.04;99988.94;4501466;31;33121;-68
2023/07/18 05:38:39;;;;;;;6.35;4.30;;;;;;;29.03;44.09;99996.06;4501702;31;34774;-68
2023/07/18 05:41:06;;;;;;;5.60;3.80;;;;;;;29.03;44.17;99998.00;4501230;31;34774;-61
2023/07/18 05:43:34;;;;;;;6.90;4.05;;;;;;;29.04;44.22;100000.47;4501380;31;34585;-71
2023/07/18 05:46:04;;;;;;;6.68;4.03;;;;;;;29.05;44.33;99991.16;4501351;31;34184;-63
2023/07/18 05:48:34;;;;;;;7.55;3.90;;;;;;;29.05;44.40;99993.91;4483610;31;34414;-64
2023/07/18 05:51:02;;;;;;;6.60;4.10;;;;;;;29.06;44.38;99981.84;4501364;31;34963;-66
2023/07/18 05:53:30;;;;;;;6.47;3.65;;;;;;;29.07;44.37;99983.47;4499945;31;34731;-70
2023/07/18 05:55:57;;;;;;;6.47;3.42;;;;;;;29.07;44.36;99994.47;4501443;31;33353;-65
2023/07/18 05:58:25;;;;;;;7.72;3.75;;;;;;;29.09;44.35;99997.78;4492360;31;34179;-68
2023/07/18 06:00:53;;;;;;;7.15;4.18;;;;;;;29.09;44.36;100002.44;4485384;32;33749;-62
2023/07/18 06:03:22;;;;;;;6.22;4.05;;;;;;;29.11;44.39;100003.03;4485371;32;33490;-62
2023/07/18 06:05:54;;;;;;;7.28;4.12;;;;;;;29.10;44.44;100007.69;4485779;32;33399;-64
2023/07/18 06:08:21;;;;;;;7.05;3.83;;;;;;;29.11;44.46;100014.84;4485249;32;34124;-63
2023/07/18 06:10:56;;;;;;;6.25;3.80;;;;;;;29.12;44.45;100016.50;4484184;32;33587;-73
2023/07/18 06:13:24;;;;;;;7.78;3.87;;;;;;;29.12;44.47;100013.75;4484167;32;33918;-70
2023/07/18 06:15:52;;;;;;;8.18;4.30;;;;;;;29.13;44.47;100007.16;4483916;32;33254;-62
2023/07/18 06:18:19;;;;;;;6.72;3.95;;;;;;;29.14;44.48;100014.31;4485228;32;34747;-67
2023/07/18 06:20:48;;;;;;;5.87;3.10;;;;;;;29.14;44.49;100011.56;4485243;32;34836;-64
2023/07/18 06:23:16;;;;;;;5.35;3.85;;;;;;;29.15;44.49;100010.50;4485024;32;33823;-71
2023/07/18 06:25:43;;;;;;;7.07;4.03;;;;;;;29.16;44.52;100014.91;4485357;32;33380;-65
2023/07/18 06:28:11;;;;;;;7.95;3.60;;;;;;;29.16;44.52;100014.06;4485264;32;34041;-63
2023/07/18 06:30:38;;;;;;;5.25;3.40;;;;;;;29.16;44.51;100019.56;4484859;32;35132;-62
2023/07/18 06:33:06;;;;;;;6.37;3.60;;;;;;;29.16;44.53;100025.06;4485170;32;34483;-67
2023/07/18 06:35:34;;;;;;;7.50;4.10;;;;;;;29.17;44.53;100019.28;4485314;32;34117;-62
2023/07/18 06:38:01;;;;;;;8.10;4.18;;;;;;;29.18;44.55;100023.69;4485035;32;34775;-64
2023/07/18 06:40:29;;;;;;;8.98;4.18;;;;;;;29.18;44.57;100020.13;4484800;32;33887;-62
2023/07/18 06:42:57;;;;;;;5.90;4.12;;;;;;;29.18;44.58;100029.19;4485006;32;34088;-63
2023/07/18 06:45:24;;;;;;;7.80;4.00;;;;;;;29.18;44.58;100029.19;4485061;32;33462;-62
2023/07/18 06:47:52;;;;;;;7.50;3.83;;;;;;;29.19;44.59;100039.12;4483910;32;33395;-62
2023/07/18 06:50:20;;;;;;;5.90;4.03;;;;;;;29.19;44.62;100033.63;4485141;32;34780;-63
2023/07/18 06:52:47;;;;;;;7.37;3.83;;;;;;;29.19;44.66;100036.38;4485014;32;34601;-65
2023/07/18 06:55:16;;;;;;;6.70;3.70;;;;;;;29.19;44.67;100028.13;4485090;32;34171;-62
2023/07/18 06:57:43;;;;;;;6.57;3.40;;;;;;;29.20;44.70;100040.78;4488044;31;34108;-62
2023/07/18 07:00:12;;;;;;;6.95;4.00;;;;;;;29.22;44.71;100041.31;4501072;31;33109;-63
2023/07/18 07:02:40;;;;;;;6.32;3.75;;;;;;;29.21;44.75;100047.09;4500879;31;33905;-63
2023/07/18 07:05:09;;;;;;;6.28;3.80;;;;;;;29.23;44.75;100047.66;4499638;31;33342;-62
2023/07/18 07:07:36;;;;;;;7.37;4.35;;;;;;;29.22;44.77;100048.75;4500588;31;33922;-65
2023/07/18 07:10:08;;;;;;;6.57;3.97;;;;;;;29.22;44.79;100051.50;4500757;31;34574;-62
2023/07/18 07:12:36;;;;;;;6.68;3.72;;;;;;;29.23;44.79;100056.72;4500623;31;34554;-62
2023/07/18 07:15:05;;;;;;;5.62;3.67;;;;;;;29.23;44.82;100053.16;4500681;31;33222;-68
2023/07/18 07:17:32;;;;;;;6.97;3.85;;;;;;;29.24;44.83;100063.06;4500974;31;34107;-63
2023/07/18 07:20:00;;;;;;;7.85;4.05;;;;;;;29.24;44.87;100057.56;4486402;31;33068;-62
2023/07/18 07:22:28;;;;;;;8.30;4.28;;;;;;;29.25;44.91;100059.22;4500994;31;33806;-62
2023/07/18 07:24:56;;;;;;;8.52;4.30;;;;;;;29.26;44.94;100063.63;4500947;31;33335;-62
2023/07/18 07:27:24;;;;;;;6.72;3.90;;;;;;;29.27;45.00;100058.97;4500381;31;33702;-62
2023/07/18 07:29:52;;;;;;;6.03;3.22;;;;;;;29.27;45.02;100051.53;4500664;31;33736;-73
2023/07/18 07:32:20;;;;;;;7.12;4.40;;;;;;;29.29;45.04;100056.81;4500365;31;35371;-69
2023/07/18 07:34:47;;;;;;;7.97;4.00;;;;;;;29.28;45.06;100053.19;4500538;31;34483;-73
2023/07/18 07:37:15;;;;;;;7.60;4.07;;;;;;;29.29;45.06;100056.81;4499456;31;34009;-63
2023/07/18 07:39:44;;;;;;;7.37;3.65;;;;;;;29.30;45.08;100061.19;4500583;31;34018;-70
2023/07/18 07:42:12;;;;;;;6.37;3.70;;;;;;;29.29;45.10;100059.56;4500347;31;34599;-63
2023/07/18 07:44:40;;;;;;;6.78;3.90;;;;;;;29.31;45.12;100068.34;4500436;31;33350;-69
2023/07/18 07:47:07;;;;;;;7.35;4.35;;;;;;;29.30;45.13;100069.44;4500482;31;34690;-64
2023/07/18 07:49:35;;;;;;;7.95;3.40;;;;;;;29.30;45.14;100061.19;4500407;31;34715;-62
2023/07/18 07:52:03;;;;;;;9.65;4.32;;;;;;;29.30;45.13;100066.69;4499506;31;34853;-64
2023/07/18 07:54:30;;;;;;;7.97;4.35;;;;;;;29.31;45.12;100060.09;4500461;31;33340;-62
2023/07/18 07:56:58;;;;;;;5.00;3.67;;;;;;;29.33;45.11;100072.50;4500348;31;33767;-63
2023/07/18 07:59:26;;;;;;;6.43;3.67;;;;;;;29.31;45.15;100066.44;4500363;31;33765;-62
2023/07/18 08:01:54;;;;;;;6.07;3.65;;;;;;;29.33;45.14;100071.66;4500420;31;33904;-63
2023/07/18 08:04:21;;;;;;;7.30;3.53;;;;;;;29.34;45.15;100070.59;4497097;31;34109;-66
2023/07/18 08:06:49;;;;;;;6.72;4.00;;;;;;;29.34;45.14;100073.34;4500183;31;33761;-75
2023/07/18 08:09:17;;;;;;;5.87;3.75;;;;;;;29.34;45.15;100076.09;4500262;31;34790;-64
2023/07/18 08:11:45;;;;;;;6.80;4.03;;;;;;;29.34;45.16;100076.91;4499754;31;33868;-74
2023/07/18 08:14:12;;;;;;;6.00;3.78;;;;;;;29.35;45.17;100075.00;4500279;31;33448;-62
2023/07/18 08:16:41;;;;;;;6.32;4.05;;;;;;;29.35;45.19;100075.81;4500071;31;33382;-72
2023/07/18 08:19:09;;;;;;;7.87;3.70;;;;;;;29.34;45.18;100071.41;4497494;31;33911;-66
2023/07/18 08:21:36;;;;;;;5.60;3.28;;;;;;;29.36;45.15;100065.66;4500095;31;34178;-74
2023/07/18 08:24:04;;;;;;;6.53;3.92;;;;;;;29.35;45.10;100070.31;4500054;31;33945;-63
2023/07/18 08:26:32;;;;;;;6.70;3.25;;;;;;;29.37;45.06;100073.63;4500233;31;33901;-70
2023/07/18 08:28:59;;;;;;;7.62;3.53;;;;;;;29.36;45.02;100062.91;4500215;31;34716;-70
2023/07/18 08:31:27;;;;;;;5.70;3.60;;;;;;;29.36;44.94;100057.41;4499847;31;33812;-74
2023/07/18 08:33:55;;;;;;;7.55;3.62;;;;;;;29.36;44.85;100055.47;4500050;31;32970;-74
2023/07/18 08:36:22;;;;;;;5.50;3.62;;;;;;;29.36;44.82;100062.91;4500090;31;34788;-71
2023/07/18 08:38:50;;;;;;;6.93;3.95;;;;;;;29.36;44.64;100055.47;4499803;31;34863;-74
2023/07/18 08:41:19;;;;;;;8.02;3.58;;;;;;;29.37;44.46;100059.06;4500143;31;33824;-75
2023/07/18 08:43:47;;;;;;;;;;;;;;;29.36;44.36;100060.16;4473692;31;34356;-73
2023/07/18 08:46:15;;;;;;;8.88;3.50;;;;;;;29.45;44.07;100059.41;4499870;31;34132;-71
2023/07/18 08:48:44;;;;;;;6.75;3.78;;;;;;;29.37;44.01;100068.13;4498731;31;34958;-74
2023/07/18 08:51:12;;;;;;;7.15;4.30;;;;;;;29.37;43.92;100065.38;4500028;31;34666;-69
2023/07/18 08:53:40;;;;;;;5.90;4.18;;;;;;;29.36;43.85;100068.41;4499929;31;33158;-73
2023/07/18 08:56:11;;;;;;;8.30;4.18;;;;;;;29.35;43.54;100067.56;4499925;31;34852;-74
2023/07/18 08:58:38;;;;;;;5.80;3.53;;;;;;;29.35;43.25;100061.25;4500005;31;34109;-67
2023/07/18 09:01:06;;;;;;;7.12;3.83;;;;;;;29.36;43.22;100060.97;4499733;31;34013;-70
2023/07/18 09:03:35;;;;;;;6.68;4.12;;;;;;;29.36;43.26;100062.91;4498910;31;33976;-67
2023/07/18 09:06:02;;;;;;;7.18;4.10;;;;;;;29.36;43.27;100060.16;4499882;31;33980;-72
2023/07/18 09:08:43;;;;;;;6.90;4.07;;;;;;;29.36;43.30;100066.47;4494053;31;33691;-65
2023/07/18 09:11:12;;;;;;;5.97;3.55;;;;;;;29.37;43.30;100064.56;4492197;31;34862;-63
2023/07/18 09:13:41;;;;;;;5.62;3.37;;;;;;;29.36;43.32;100052.72;4493490;31;34473;-65
2023/07/18 09:16:24;;;;;;;7.47;4.30;;;;;;;29.37;43.29;100057.13;4491828;31;34801;-52
2023/07/18 09:18:54;;;;;;;6.68;3.90;;;;;;;29.38;43.24;100055.25;4483834;32;34592;-59
2023/07/18 09:21:23;;;;;;;8.98;4.65;;;;;;;29.37;43.34;100054.37;4484145;32;33475;-56
2023/07/18 09:23:50;;;;;;;9.98;4.68;;;;;;;29.38;43.59;100053.31;4483997;32;33441;-57
2023/07/18 09:26:20;;;;;;;8.50;4.70;;;;;;;29.39;43.63;100046.72;4494882;31;33925;-59
2023/07/18 09:28:47;;;;;;;14.37;4.80;;;;;;;29.41;43.90;100043.72;4499657;31;33570;-57
2023/07/18 09:31:19;;;;;;;11.93;4.85;;;;;;;29.42;44.21;100037.94;4499456;31;33371;-57
2023/07/18 09:33:48;;;;;;;7.78;4.00;;;;;;;29.43;44.61;100041.53;4499399;31;33422;-53
2023/07/18 09:36:23;;;;;;;9.93;4.60;;;;;;;29.46;44.33;100049.25;4498211;31;33801;-50
2023/07/18 09:38:51;;;;;;;8.77;4.37;;;;;;;29.46;44.17;100041.81;4499198;31;34418;-55
2023/07/18 09:41:19;;;;;;;9.02;4.93;;;;;;;29.45;44.26;100037.44;4499374;31;34560;-53
2023/07/18 09:43:48;;;;;;;;;;;;;;;29.46;44.31;100019.00;4499696;31;33380;-52
2023/07/18 09:46:16;;;;;;;10.82;4.87;;;;;;;29.54;44.13;100012.22;4499405;31;34939;-54
2023/07/18 09:48:45;;;;;;;8.15;4.22;;;;;;;29.47;44.33;100017.91;4499308;31;33875;-52
2023/07/18 09:51:20;;;;;;;8.15;4.78;;;;;;;29.45;44.45;100006.34;4499291;31;33486;-57
2023/07/18 09:53:48;;;;;;;13.57;4.75;;;;;;;29.44;44.48;100011.03;4498013;31;33345;-52
2023/07/18 09:56:16;;;;;;;12.90;4.60;;;;;;;29.43;44.53;100005.81;4499395;31;34681;-57
2023/07/18 09:58:46;;;;;;;10.43;4.28;;;;;;;29.43;44.54;100000.31;4499336;31;34873;-55
2023/07/18 10:01:32;;;;;;;12.20;4.43;;;;;;;29.43;44.55;100003.88;4499058;31;34909;-52
2023/07/18 10:04:00;;;;;;;9.23;4.18;;;;;;;29.43;44.57;99995.63;4484910;31;33602;-51
2023/07/18 10:06:28;;;;;;;11.98;4.35;;;;;;;29.42;44.60;99996.69;4497860;31;33711;-57
2023/07/18 10:08:55;;;;;;;11.20;4.15;;;;;;;29.41;44.62;99984.06;4497791;31;33580;-51
2023/07/18 10:11:23;;;;;;;7.32;3.95;;;;;;;29.42;44.60;99987.63;4497798;31;33767;-51
2023/07/18 10:14:06;;;;;;;8.18;4.12;;;;;;;29.42;44.61;99977.47;4499036;31;34033;-50
2023/07/18 10:16:37;;;;;;;8.13;4.15;;;;;;;29.45;44.61;99989.88;4500749;31;33948;-53
2023/07/18 10:19:22;;;;;;;8.15;4.10;;;;;;;29.42;44.66;99974.72;4486869;31;33606;-55
2023/07/18 10:21:53;;;;;;;10.88;4.50;;;;;;;29.44;44.60;99966.22;4501126;31;34664;-50
2023/07/18 10:24:21;;;;;;;12.48;4.20;;;;;;;29.43;44.66;99976.41;4499793;31;34162;-51
2023/07/18 10:27:06;;;;;;;11.23;4.07;;;;;;;29.43;44.65;99975.56;4501289;31;33754;-52
2023/07/18 10:29:38;;;;;;;9.50;3.90;;;;;;;29.42;44.66;99971.97;4499827;31;33929;-50
2023/07/18 10:32:09;;;;;;;8.43;3.78;;;;;;;29.42;44.67;99971.13;4500996;31;34179;-54
2023/07/18 10:34:37;;;;;;;7.25;3.67;;;;;;;29.42;44.66;99965.63;4500673;31;33349;-53
2023/07/18 10:37:09;;;;;;;7.03;3.47;;;;;;;29.42;44.65;99957.38;4501044;31;34388;-52
2023/07/18 10:39:40;;;;;;;8.27;3.50;;;;;;;29.41;44.67;99958.50;4501051;31;34007;-51
2023/07/18 10:42:09;;;;;;;7.93;3.90;;;;;;;29.42;44.66;99952.72;4500857;31;33815;-52
2023/07/18 10:44:39;;;;;;;7.60;4.28;;;;;;;29.42;44.66;99954.66;4500935;31;34217;-51
2023/07/18 10:47:18;;;;;;;6.82;3.80;;;;;;;29.42;44.66;99952.72;4500998;31;33901;-53
2023/07/18 10:49:47;;;;;;;9.20;3.95;;;;;;;29.43;44.65;99951.66;4500855;31;34927;-53
2023/07/18 10:52:15;;;;;;;8.33;3.80;;;;;;;29.44;44.66;99947.81;4500873;31;34942;-50
2023/07/18 10:54:49;;;;;;;9.35;3.78;;;;;;;29.44;44.67;99946.97;4500732;31;33806;-50
2023/07/18 10:57:23;;;;;;;5.05;3.45;;;;;;;29.43;44.67;99945.31;4501114;31;33890;-49
2023/07/18 10:59:51;;;;;;;7.87;4.35;;;;;;;29.43;44.68;99967.31;4500737;31;33872;-50
2023/07/18 11:02:20;;;;;;;5.93;3.35;;;;;;;29.43;44.68;99968.16;4491457;31;34571;-51
2023/07/18 11:04:47;;;;;;;9.32;3.78;;;;;;;29.43;44.67;99957.16;4485002;32;33071;-53
2023/07/18 11:07:15;;;;;;;5.72;3.15;;;;;;;29.44;44.69;99963.47;4484878;32;34676;-51
2023/07/18 11:09:43;;;;;;;6.68;3.72;;;;;;;29.42;44.71;99952.72;4485042;32;34936;-53
2023/07/18 11:12:17;;;;;;;6.35;3.30;;;;;;;29.43;44.69;99948.06;4485002;32;33873;-52
2023/07/18 11:14:46;;;;;;;7.07;3.58;;;;;;;29.44;44.68;99945.06;4484754;32;34285;-51
2023/07/18 11:17:17;;;;;;;6.75;3.42;;;;;;;29.43;44.68;99943.41;4485199;32;33921;-50
2023/07/18 11:19:45;;;;;;;8.15;3.47;;;;;;;29.44;44.73;99944.22;4484801;32;34893;-56
2023/07/18 11:22:14;;;;;;;7.95;3.62;;;;;;;29.44;44.74;99941.47;4498892;31;33883;-54
2023/07/18 11:24:45;;;;;;;7.25;2.95;;;;;;;29.44;44.73;99936.81;4499466;31;33328;-51
2023/07/18 11:27:19;;;;;;;6.82;3.62;;;;;;;29.44;44.78;99941.47;4499452;31;34631;-51
2023/07/18 11:29:49;;;;;;;6.10;3.33;;;;;;;29.44;44.79;99938.72;4500659;31;34747;-54
2023/07/18 11:32:34;;;;;;;6.40;3.25;;;;;;;29.43;44.80;99926.09;4500391;31;33879;-53
2023/07/18 11:35:02;;;;;;;4.90;3.10;;;;;;;29.44;44.80;99928.56;4497134;31;34255;-50
2023/07/18 11:37:30;;;;;;;7.47;3.03;;;;;;;29.43;44.81;99928.84;4500583;31;34231;-58
2023/07/18 11:40:03;;;;;;;5.40;3.53;;;;;;;29.43;44.84;99932.41;4481094;31;34172;-50